Hauptseite
METAR-TAF:

METAR-TAF

Flughäfen :

RAF Marham

Marham, England

Breite: 52-39N, Länge: 000-34E, Höhe: 23 m

Beobachtung

Neuester Wetterbericht von vor 58 Minuten, um 17:50 UTC
Wind 6 kt aus Ost/Südost
Temperatur 9°C
Luftfeuchtigkeit 93%
Luftdruck 1027 hPa
Sichtweite 10 km oder mehr

METAR: EGYM 161750Z AUTO 11006KT 9999 OVC005/// 09/08 Q1027

Zeit: 18:48 (18:48 UTC)

Prognose

Neuester Wetterbericht von vor 7 Stunden und 52 Minuten, um 10:56 UTC
Gültige Prognose vom 16 um 12 UTC bis 16 um 21 UTC
Wind 5 kt aus Ost
Sichtweite: 5000 m
Durchbrochene Bewölkung in der Höhe von 600 ft
feuchter Dunst
Wahrscheinlichkeit 40% :
Zeitweise
vom 16 um 12 UTC bis 16 um 21 UTC
Sichtweite: 3000 m
Durchbrochene Bewölkung in der Höhe von 300 ft
Sprühregen leicht

TAF: EGYM 161056Z 1612/1621 10005KT 5000 BR BKN006 PROB40 TEMPO 1612/1621 3000 -DZ BKN003

Wetterbeobachtungen und Prognosen von mehr als 4000 Flughäfen (METAR und TAF Bericht).

Die verfügbaren Stationen werden durch gelbe und rote Markierungen auf der Karte dargestellt.

Führen Sie die Maus auf sie, um den Namen der Station zu sehen.

Darauf klicken, um die Beobachtung von Wetterbeobachtungen und Prognosen zu sehen.

Um die Karte zu ändern : klicken Sie auf den grünen Tasten mit einem schwarzen Kreuz Zum Vergrößern, auf den grünen Button mit einem Gedankenstrich zu verkleinern, oder auf die grünen Pfeile für benachbarte Karten.


METAR-TAF: